createdAt,value
2015-03-01T00:00:01.200Z,100761
2015-03-01T00:00:14.602Z,100773
2015-03-01T00:00:27.992Z,100764
2015-03-01T00:00:41.420Z,100758
2015-03-01T00:00:54.918Z,100764
2015-03-01T00:01:08.298Z,100764
2015-03-01T00:01:21.728Z,100761
2015-03-01T00:01:35.245Z,100767
2015-03-01T00:01:48.653Z,100761
2015-03-01T00:02:02.097Z,100770
2015-03-01T00:02:15.604Z,100764
2015-03-01T00:02:29.041Z,100773
2015-03-01T00:02:42.418Z,100748
2015-03-01T00:02:55.885Z,100760
2015-03-01T00:03:09.324Z,100767
2015-03-01T00:03:22.822Z,100757
2015-03-01T00:03:36.193Z,100757
2015-03-01T00:03:49.596Z,100751
2015-03-01T00:04:03.105Z,100760
2015-03-01T00:04:16.519Z,100770
2015-03-01T00:04:29.871Z,100754
2015-03-01T00:04:43.383Z,100757
2015-03-01T00:04:56.858Z,100757
2015-03-01T00:05:10.236Z,100757
2015-03-01T00:05:23.762Z,100757
2015-03-01T00:05:37.258Z,100760
2015-03-01T00:05:50.742Z,100766
2015-03-01T00:06:04.162Z,100757
2015-03-01T00:06:17.508Z,100751
2015-03-01T00:06:31.004Z,100757
2015-03-01T00:06:44.447Z,100760
2015-03-01T00:06:57.799Z,100763
2015-03-01T00:07:11.272Z,100763
2015-03-01T00:07:24.742Z,100766
2015-03-01T00:07:38.089Z,100751
2015-03-01T00:07:51.538Z,100763
2015-03-01T00:08:05.005Z,100751
2015-03-01T00:08:18.399Z,100769
2015-03-01T00:08:31.820Z,100763
2015-03-01T00:08:45.252Z,100750
2015-03-01T00:08:58.730Z,100766
2015-03-01T00:09:12.238Z,100769
2015-03-01T00:09:25.630Z,100766
2015-03-01T00:09:39.098Z,100756
2015-03-01T00:09:52.600Z,100756
2015-03-01T00:10:05.974Z,100762
2015-03-01T00:10:19.313Z,100762
2015-03-01T00:10:32.813Z,100766
2015-03-01T00:10:46.198Z,100762
2015-03-01T00:10:59.612Z,100756
2015-03-01T00:11:13.112Z,100747
2015-03-01T00:11:26.542Z,100768
2015-03-01T00:11:40.005Z,100775
2015-03-01T00:11:53.362Z,100762
2015-03-01T00:12:06.825Z,100756
2015-03-01T00:12:20.327Z,100741
2015-03-01T00:12:33.729Z,100765
2015-03-01T00:12:47.163Z,100762
2015-03-01T00:13:00.675Z,100765
2015-03-01T00:13:14.144Z,100762
2015-03-01T00:13:27.552Z,100765
2015-03-01T00:13:41.058Z,100750
2015-03-01T00:13:54.497Z,100759
2015-03-01T00:14:07.852Z,100762
2015-03-01T00:14:21.316Z,100762
2015-03-01T00:14:34.641Z,100759
2015-03-01T00:14:48.136Z,100762
2015-03-01T00:15:01.573Z,100756
2015-03-01T00:15:14.942Z,100756
2015-03-01T00:15:28.440Z,100759
2015-03-01T00:15:41.915Z,100756
2015-03-01T00:15:55.289Z,100746
2015-03-01T00:16:09.187Z,100765
2015-03-01T00:16:22.657Z,100752
2015-03-01T00:16:36.038Z,100765
2015-03-01T00:16:49.498Z,100749
2015-03-01T00:17:03.029Z,100762
2015-03-01T00:17:16.439Z,100749
2015-03-01T00:17:29.912Z,100765
2015-03-01T00:17:43.439Z,100759
2015-03-01T00:17:56.830Z,100756
2015-03-01T00:18:10.207Z,100756
2015-03-01T00:18:23.732Z,100756
2015-03-01T00:18:37.135Z,100753
2015-03-01T00:18:50.420Z,100771
2015-03-01T00:19:03.916Z,100759
2015-03-01T00:19:17.350Z,100765
2015-03-01T00:19:30.723Z,100749
2015-03-01T00:19:44.126Z,100750
2015-03-01T00:19:57.592Z,100750
2015-03-01T00:20:11.034Z,100750
2015-03-01T00:20:24.468Z,100747
2015-03-01T00:20:37.830Z,100753
2015-03-01T00:20:51.351Z,100759
2015-03-01T00:21:04.828Z,100750
2015-03-01T00:21:18.205Z,100756
2015-03-01T00:21:31.688Z,100756
2015-03-01T00:21:45.171Z,100750
2015-03-01T00:21:58.539Z,100762
2015-03-01T00:22:11.981Z,100747
2015-03-01T00:22:25.483Z,100759
2015-03-01T00:22:38.828Z,100753
2015-03-01T00:22:52.249Z,100757
2015-03-01T00:23:05.636Z,100747
2015-03-01T00:23:19.114Z,100754
2015-03-01T00:23:32.567Z,100763
2015-03-01T00:23:45.917Z,100760
2015-03-01T00:23:59.362Z,100751
2015-03-01T00:24:12.892Z,100738
2015-03-01T00:24:26.284Z,100754
2015-03-01T00:24:39.742Z,100757
2015-03-01T00:24:53.282Z,100748
2015-03-01T00:25:06.717Z,100751
2015-03-01T00:25:20.155Z,100735
2015-03-01T00:25:33.637Z,100745
2015-03-01T00:25:47.076Z,100748
2015-03-01T00:26:00.552Z,100736
2015-03-01T00:26:13.924Z,100742
2015-03-01T00:26:27.293Z,100748
2015-03-01T00:26:40.793Z,100745
2015-03-01T00:26:54.171Z,100754
2015-03-01T00:27:07.604Z,100742
2015-03-01T00:27:21.086Z,100742
2015-03-01T00:27:34.513Z,100745
2015-03-01T00:27:47.866Z,100748
2015-03-01T00:28:01.372Z,100745
2015-03-01T00:28:14.842Z,100760
2015-03-01T00:28:28.244Z,100748
2015-03-01T00:28:41.736Z,100736
2015-03-01T00:28:55.132Z,100736
2015-03-01T00:29:08.647Z,100733
2015-03-01T00:29:22.052Z,100745
2015-03-01T00:29:35.345Z,100745
2015-03-01T00:29:48.836Z,100742
2015-03-01T00:30:02.274Z,100736
2015-03-01T00:30:15.754Z,100739
2015-03-01T00:30:29.203Z,100727
2015-03-01T00:30:42.662Z,100733
2015-03-01T00:30:56.007Z,100730
2015-03-01T00:31:09.443Z,100727
2015-03-01T00:31:22.942Z,100727
2015-03-01T00:31:36.346Z,100733
2015-03-01T00:31:49.793Z,100730
2015-03-01T00:32:03.196Z,100727
2015-03-01T00:32:16.686Z,100739
2015-03-01T00:32:30.193Z,100736
2015-03-01T00:32:43.576Z,100736
2015-03-01T00:32:57.039Z,100733
2015-03-01T00:33:10.529Z,100733
2015-03-01T00:33:23.888Z,100730
2015-03-01T00:33:37.295Z,100730
2015-03-01T00:33:50.788Z,100721
2015-03-01T00:34:04.176Z,100721
2015-03-01T00:34:17.583Z,100718
2015-03-01T00:34:31.024Z,100718
2015-03-01T00:34:44.468Z,100708
2015-03-01T00:34:57.907Z,100718
2015-03-01T00:35:11.276Z,100733
2015-03-01T00:35:24.699Z,100730
2015-03-01T00:35:38.217Z,100718
2015-03-01T00:35:51.618Z,100733
2015-03-01T00:36:05.060Z,100718
2015-03-01T00:36:18.596Z,100727
2015-03-01T00:36:32.007Z,100721
2015-03-01T00:36:45.394Z,100718
2015-03-01T00:36:58.908Z,100721
2015-03-01T00:37:12.345Z,100714
2015-03-01T00:37:25.784Z,100730
2015-03-01T00:37:39.214Z,100718
2015-03-01T00:37:52.621Z,100715
2015-03-01T00:38:06.065Z,100718
2015-03-01T00:38:19.509Z,100721
2015-03-01T00:38:32.841Z,100724
2015-03-01T00:38:46.341Z,100721
2015-03-01T00:38:59.775Z,100705
2015-03-01T00:39:13.173Z,100708
2015-03-01T00:39:26.651Z,100721
2015-03-01T00:39:40.143Z,100721
2015-03-01T00:39:53.534Z,100717
2015-03-01T00:40:07.026Z,100705
2015-03-01T00:40:20.613Z,100708
2015-03-01T00:40:34.012Z,100711
2015-03-01T00:40:47.473Z,100720
2015-03-01T00:41:00.969Z,100708
2015-03-01T00:41:14.359Z,100711
2015-03-01T00:41:27.731Z,100714
2015-03-01T00:41:41.234Z,100708
2015-03-01T00:41:54.653Z,100705
2015-03-01T00:42:08.010Z,100717
2015-03-01T00:42:21.476Z,100705
2015-03-01T00:42:34.906Z,100714
2015-03-01T00:42:48.301Z,100717
2015-03-01T00:43:01.783Z,100717
2015-03-01T00:43:15.200Z,100730
2015-03-01T00:43:28.731Z,100711
2015-03-01T00:43:42.176Z,100717
2015-03-01T00:43:55.588Z,100711
2015-03-01T00:44:09.106Z,100714
2015-03-01T00:44:22.565Z,100717
2015-03-01T00:44:35.907Z,100711
2015-03-01T00:44:49.362Z,100711
2015-03-01T00:45:02.840Z,100705
2015-03-01T00:45:16.186Z,100705
2015-03-01T00:45:29.641Z,100665
2015-03-01T00:45:43.137Z,100708
2015-03-01T00:45:56.530Z,100711
2015-03-01T00:46:10.981Z,100702
2015-03-01T00:46:24.351Z,100699
2015-03-01T00:46:37.812Z,100699
2015-03-01T00:46:51.327Z,100699
2015-03-01T00:47:04.696Z,100702
2015-03-01T00:47:18.165Z,100699
2015-03-01T00:47:31.693Z,100711
2015-03-01T00:47:45.083Z,100705
2015-03-01T00:47:58.544Z,100708
2015-03-01T00:48:12.061Z,100711
2015-03-01T00:48:25.509Z,100702
2015-03-01T00:48:38.898Z,100693
2015-03-01T00:48:52.339Z,100699
2015-03-01T00:49:05.799Z,100705
2015-03-01T00:49:19.280Z,100702
2015-03-01T00:49:32.640Z,100705
2015-03-01T00:49:46.051Z,100693
2015-03-01T00:49:59.588Z,100705
2015-03-01T00:50:12.980Z,100696
2015-03-01T00:50:26.456Z,100693
2015-03-01T00:50:39.964Z,100702
2015-03-01T00:50:53.384Z,100690
2015-03-01T00:51:06.770Z,100696
2015-03-01T00:51:20.273Z,100696
2015-03-01T00:51:33.760Z,100705
2015-03-01T00:51:47.258Z,100687
2015-03-01T00:52:00.704Z,100696
2015-03-01T00:52:14.146Z,100690
2015-03-01T00:52:27.646Z,100690
2015-03-01T00:52:41.066Z,100702
2015-03-01T00:52:54.431Z,100696
2015-03-01T00:53:07.931Z,100686
2015-03-01T00:53:21.386Z,100699
2015-03-01T00:53:34.754Z,100699
2015-03-01T00:53:48.228Z,100680
2015-03-01T00:54:01.711Z,100699
2015-03-01T00:54:15.071Z,100680
2015-03-01T00:54:28.551Z,100690
2015-03-01T00:54:41.932Z,100687
2015-03-01T00:54:55.388Z,100690
2015-03-01T00:55:08.838Z,100687
2015-03-01T00:55:22.229Z,100687
2015-03-01T00:55:35.719Z,100687
2015-03-01T00:55:49.211Z,100680
2015-03-01T00:56:02.649Z,100680
2015-03-01T00:56:16.177Z,100683
2015-03-01T00:56:29.682Z,100674
2015-03-01T00:56:43.058Z,100686
2015-03-01T00:56:56.480Z,100696
2015-03-01T00:57:09.970Z,100683
2015-03-01T00:57:23.344Z,100680
2015-03-01T00:57:36.807Z,100680
2015-03-01T00:57:50.158Z,100689
2015-03-01T00:58:03.599Z,100683
2015-03-01T00:58:17.101Z,100683
2015-03-01T00:58:30.467Z,100677
2015-03-01T00:58:43.867Z,100702
2015-03-01T00:58:57.367Z,100686
2015-03-01T00:59:10.793Z,100683
2015-03-01T00:59:24.200Z,100677
2015-03-01T00:59:37.745Z,100677
2015-03-01T00:59:51.195Z,100680
2015-03-01T01:00:04.591Z,100677
2015-03-01T01:00:18.114Z,100689
2015-03-01T01:00:31.527Z,100677
2015-03-01T01:00:45.014Z,100668
2015-03-01T01:00:58.437Z,100680
2015-03-01T01:01:11.840Z,100677
2015-03-01T01:01:25.389Z,100683
2015-03-01T01:01:38.792Z,100668
2015-03-01T01:01:52.174Z,100674
2015-03-01T01:02:05.668Z,100668
2015-03-01T01:02:19.114Z,100674
2015-03-01T01:02:32.484Z,100668
2015-03-01T01:02:45.997Z,100680
2015-03-01T01:02:59.475Z,100674
2015-03-01T01:03:12.853Z,100677
2015-03-01T01:03:26.353Z,100677
2015-03-01T01:03:39.888Z,100674
2015-03-01T01:03:53.264Z,100671
2015-03-01T01:04:06.701Z,100671
2015-03-01T01:04:20.263Z,100683
2015-03-01T01:04:33.656Z,100677
2015-03-01T01:04:47.050Z,100665
2015-03-01T01:05:00.559Z,100671
2015-03-01T01:05:13.989Z,100665
2015-03-01T01:05:27.373Z,100662
2015-03-01T01:05:40.904Z,100662
2015-03-01T01:05:54.346Z,100683
2015-03-01T01:06:07.797Z,100674
2015-03-01T01:06:21.185Z,100668
2015-03-01T01:06:34.585Z,100671
2015-03-01T01:06:48.097Z,100656
2015-03-01T01:07:01.704Z,100665
2015-03-01T01:07:15.104Z,100671
2015-03-01T01:07:28.680Z,100668
2015-03-01T01:07:42.124Z,100656
2015-03-01T01:07:55.517Z,100668
2015-03-01T01:08:08.978Z,100659
2015-03-01T01:08:22.449Z,100671
2015-03-01T01:08:35.828Z,100662
2015-03-01T01:08:49.267Z,100659
2015-03-01T01:09:02.676Z,100668
2015-03-01T01:09:16.179Z,100659
2015-03-01T01:09:29.614Z,100662
2015-03-01T01:09:42.992Z,100650
2015-03-01T01:09:56.445Z,100668
2015-03-01T01:10:09.912Z,100668
2015-03-01T01:10:23.326Z,100654
2015-03-01T01:10:36.782Z,100659
2015-03-01T01:10:50.338Z,100656
2015-03-01T01:11:03.746Z,100656
2015-03-01T01:11:17.204Z,100665
2015-03-01T01:11:30.757Z,100659
2015-03-01T01:11:44.176Z,100659
2015-03-01T01:11:57.639Z,100656
2015-03-01T01:12:10.995Z,100656
2015-03-01T01:12:24.451Z,100656
2015-03-01T01:12:37.949Z,100659
2015-03-01T01:12:51.319Z,100647
2015-03-01T01:13:04.742Z,100644
2015-03-01T01:13:18.232Z,100656
2015-03-01T01:13:31.642Z,100665
2015-03-01T01:13:45.039Z,100653
2015-03-01T01:13:58.539Z,100650
2015-03-01T01:14:11.938Z,100659
2015-03-01T01:14:25.339Z,100647
2015-03-01T01:14:38.837Z,100659
2015-03-01T01:14:52.317Z,100650
2015-03-01T01:15:05.854Z,100656
2015-03-01T01:15:19.273Z,100644
2015-03-01T01:15:32.710Z,100655
2015-03-01T01:15:46.224Z,100644
2015-03-01T01:16:00.145Z,100647
2015-03-01T01:16:13.596Z,100647
2015-03-01T01:16:27.128Z,100641
2015-03-01T01:16:40.598Z,100655
2015-03-01T01:16:53.956Z,100644
2015-03-01T01:17:07.447Z,100641
2015-03-01T01:17:20.908Z,100644
2015-03-01T01:17:34.332Z,100647
2015-03-01T01:17:47.748Z,100641
2015-03-01T01:18:01.106Z,100658
2015-03-01T01:18:14.576Z,100638
2015-03-01T01:18:28.053Z,100641
2015-03-01T01:18:41.430Z,100638
2015-03-01T01:18:54.919Z,100638
2015-03-01T01:19:08.433Z,100647
2015-03-01T01:19:21.808Z,100647
2015-03-01T01:19:35.278Z,100641
2015-03-01T01:19:48.878Z,100644
2015-03-01T01:20:02.176Z,100647
2015-03-01T01:20:15.527Z,100641
2015-03-01T01:20:28.880Z,100635
2015-03-01T01:20:42.332Z,100632
2015-03-01T01:20:55.798Z,100644
2015-03-01T01:21:09.162Z,100641
2015-03-01T01:21:22.593Z,100629
2015-03-01T01:21:36.093Z,100641
2015-03-01T01:21:49.446Z,100632
2015-03-01T01:22:02.858Z,100629
2015-03-01T01:22:16.349Z,100635
2015-03-01T01:22:29.747Z,100647
2015-03-01T01:22:43.137Z,100635
2015-03-01T01:22:56.647Z,100635
2015-03-01T01:23:10.084Z,100632
2015-03-01T01:23:23.572Z,100635
2015-03-01T01:23:36.977Z,100647
2015-03-01T01:23:50.404Z,100641
2015-03-01T01:24:03.898Z,100629
2015-03-01T01:24:17.290Z,100635
2015-03-01T01:24:30.679Z,100629
2015-03-01T01:24:44.182Z,100620
2015-03-01T01:24:57.601Z,100635
2015-03-01T01:25:10.982Z,100620
2015-03-01T01:25:24.475Z,100623
2015-03-01T01:25:37.911Z,100638
2015-03-01T01:25:51.272Z,100620
2015-03-01T01:26:04.757Z,100632
2015-03-01T01:26:18.236Z,100632
2015-03-01T01:26:31.632Z,100620
2015-03-01T01:26:45.098Z,100626
2015-03-01T01:26:58.627Z,100629
2015-03-01T01:27:12.023Z,100616
2015-03-01T01:27:25.451Z,100623
2015-03-01T01:27:38.981Z,100616
2015-03-01T01:27:52.411Z,100623
2015-03-01T01:28:05.795Z,100616
2015-03-01T01:28:19.289Z,100629
2015-03-01T01:28:32.703Z,100623
2015-03-01T01:28:46.052Z,100619
2015-03-01T01:28:59.446Z,100619
2015-03-01T01:29:12.876Z,100619
2015-03-01T01:29:26.369Z,100632
2015-03-01T01:29:39.754Z,100623
2015-03-01T01:29:53.135Z,100629
2015-03-01T01:30:06.632Z,100607
2015-03-01T01:30:20.090Z,100626
2015-03-01T01:30:33.474Z,100629
2015-03-01T01:30:46.960Z,100626
2015-03-01T01:31:00.413Z,100635
2015-03-01T01:31:13.817Z,100626
2015-03-01T01:31:27.311Z,100619
2015-03-01T01:31:40.818Z,100626
2015-03-01T01:31:54.242Z,100623
2015-03-01T01:32:07.577Z,100607
2015-03-01T01:32:20.942Z,100623
2015-03-01T01:32:34.444Z,100623
2015-03-01T01:32:47.863Z,100607
2015-03-01T01:33:01.231Z,100601
2015-03-01T01:33:14.677Z,100604
2015-03-01T01:33:28.139Z,100610
2015-03-01T01:33:41.496Z,100607
2015-03-01T01:33:54.937Z,100610
2015-03-01T01:34:08.441Z,100610
2015-03-01T01:34:21.786Z,100610
2015-03-01T01:34:35.209Z,100607
2015-03-01T01:34:48.653Z,100604
2015-03-01T01:35:02.163Z,100607
2015-03-01T01:35:15.688Z,100607
2015-03-01T01:35:29.738Z,100607
2015-03-01T01:35:43.171Z,100598
2015-03-01T01:35:56.669Z,100607
2015-03-01T01:36:10.025Z,100592
2015-03-01T01:36:23.454Z,100586
2015-03-01T01:36:36.943Z,100592
2015-03-01T01:36:50.324Z,100586
2015-03-01T01:37:03.735Z,100592
2015-03-01T01:37:17.236Z,100595
2015-03-01T01:37:30.661Z,100601
2015-03-01T01:37:44.034Z,100586
2015-03-01T01:37:57.553Z,100601
2015-03-01T01:38:11.015Z,100592
2015-03-01T01:38:24.375Z,100589
2015-03-01T01:38:37.841Z,100595
2015-03-01T01:38:51.330Z,100586
2015-03-01T01:39:04.682Z,100595
2015-03-01T01:39:18.108Z,100577
2015-03-01T01:39:31.601Z,100589
2015-03-01T01:39:44.976Z,100580
2015-03-01T01:39:58.495Z,100586
2015-03-01T01:41:04.794Z,100580
2015-03-01T01:41:18.532Z,100589
2015-03-01T01:41:32.258Z,100562
2015-03-01T01:41:46.060Z,100592
2015-03-01T01:41:59.672Z,100568
2015-03-01T01:42:13.293Z,100574
2015-03-01T01:42:27.044Z,100571
2015-03-01T01:42:40.677Z,100577
2015-03-01T01:42:54.185Z,100581
2015-03-01T01:43:07.954Z,100581
2015-03-01T01:43:21.619Z,100571
2015-03-01T01:43:35.133Z,100571
2015-03-01T01:43:48.797Z,100580
2015-03-01T01:44:02.543Z,100562
2015-03-01T01:44:16.197Z,100562
2015-03-01T01:44:29.860Z,100568
2015-03-01T01:44:43.382Z,100571
2015-03-01T01:44:57.169Z,100571
2015-03-01T01:45:10.841Z,100568
2015-03-01T01:45:24.370Z,100571
2015-03-01T01:45:38.084Z,100571
2015-03-01T01:45:51.791Z,100565
2015-03-01T01:46:06.797Z,100565
2015-03-01T01:46:20.504Z,100559
2015-03-01T01:46:34.283Z,100562
2015-03-01T01:46:47.828Z,100547
2015-03-01T01:47:01.452Z,100559
2015-03-01T01:47:15.098Z,100559
2015-03-01T01:47:28.834Z,100553
2015-03-01T01:47:42.598Z,100553
2015-03-01T01:47:56.134Z,100565
2015-03-01T01:48:09.831Z,100550
2015-03-01T01:48:23.614Z,100553
2015-03-01T01:48:37.111Z,100550
2015-03-01T01:48:50.738Z,100550
2015-03-01T01:49:04.502Z,100547
2015-03-01T01:49:18.085Z,100553
2015-03-01T01:49:31.643Z,100538
2015-03-01T01:49:45.404Z,100559
2015-03-01T01:49:59.036Z,100553
2015-03-01T01:50:12.554Z,100556
2015-03-01T01:50:26.402Z,100559
2015-03-01T01:50:40.062Z,100538
2015-03-01T01:50:53.588Z,100547
2015-03-01T01:51:07.334Z,100553
2015-03-01T01:51:21.099Z,100547
2015-03-01T01:51:34.642Z,100547
2015-03-01T01:51:48.341Z,100544
2015-03-01T01:52:02.131Z,100544
2015-03-01T01:52:15.656Z,100547
2015-03-01T01:52:29.270Z,100528
2015-03-01T01:52:43.032Z,100535
2015-03-01T01:52:56.597Z,100522
2015-03-01T01:53:10.326Z,100538
2015-03-01T01:53:23.843Z,100541
2015-03-01T01:53:37.509Z,100535
2015-03-01T01:53:51.274Z,100538
2015-03-01T01:54:04.789Z,100538
2015-03-01T01:54:18.429Z,100544
2015-03-01T01:54:32.183Z,100532
2015-03-01T01:54:45.770Z,100541
2015-03-01T01:54:59.342Z,100541
2015-03-01T01:55:13.137Z,100535
2015-03-01T01:55:26.783Z,100522
2015-03-01T01:55:40.330Z,100532
2015-03-01T01:55:54.098Z,100528
2015-03-01T01:56:07.760Z,100522
2015-03-01T01:56:21.543Z,100525
2015-03-01T01:56:35.119Z,100528
2015-03-01T01:56:48.725Z,100531
2015-03-01T01:57:02.497Z,100541
2015-03-01T01:57:16.113Z,100525
2015-03-01T01:57:29.641Z,100535
2015-03-01T01:57:43.434Z,100531
2015-03-01T01:57:57.094Z,100538
2015-03-01T01:58:10.615Z,100532
2015-03-01T01:58:24.383Z,100516
2015-03-01T01:58:38.125Z,100535
2015-03-01T01:58:51.760Z,100519
2015-03-01T01:59:06.081Z,100532
2015-03-01T01:59:19.654Z,100516
2015-03-01T01:59:33.449Z,100525
2015-03-01T01:59:47.137Z,100519
2015-03-01T02:00:00.703Z,100528
2015-03-01T02:00:14.418Z,100525
2015-03-01T02:00:28.209Z,100528
2015-03-01T02:00:41.733Z,100516
2015-03-01T02:00:55.394Z,100519
2015-03-01T02:01:09.164Z,100522
2015-03-01T02:01:22.695Z,100528
2015-03-01T02:01:36.315Z,100522
2015-03-01T02:01:49.953Z,100541
2015-03-01T02:02:03.690Z,100525
2015-03-01T02:02:17.417Z,100519
2015-03-01T02:02:30.933Z,100532
2015-03-01T02:02:44.607Z,100522
2015-03-01T02:02:58.471Z,100525
2015-03-01T02:03:12.025Z,100528
2015-03-01T02:03:25.708Z,100516
2015-03-01T02:03:39.513Z,100522
2015-03-01T02:03:53.136Z,100525
2015-03-01T02:04:06.712Z,100522
2015-03-01T02:04:20.469Z,100510
2015-03-01T02:04:34.077Z,100525
2015-03-01T02:04:47.795Z,100516
2015-03-01T02:05:01.318Z,100522
2015-03-01T02:05:14.982Z,100522
2015-03-01T02:05:28.748Z,100532
2015-03-01T02:05:42.305Z,100525
2015-03-01T02:05:55.914Z,100510
2015-03-01T02:06:09.714Z,100522
2015-03-01T02:06:23.344Z,100519
2015-03-01T02:06:36.906Z,100531
2015-03-01T02:06:50.723Z,100528
2015-03-01T02:07:04.487Z,100522
2015-03-01T02:07:18.049Z,100501
2015-03-01T02:07:32.501Z,100522
2015-03-01T02:07:46.076Z,100522
2015-03-01T02:07:59.857Z,100510
2015-03-01T02:08:13.492Z,100519
2015-03-01T02:08:27.024Z,100513
2015-03-01T02:08:40.814Z,100531
2015-03-01T02:08:54.497Z,100513
2015-03-01T02:09:08.038Z,100519
2015-03-01T02:09:21.773Z,100510
2015-03-01T02:09:35.482Z,100510
2015-03-01T02:09:49.005Z,100528
2015-03-01T02:10:02.699Z,100507
2015-03-01T02:10:16.558Z,100513
2015-03-01T02:10:30.153Z,100522
2015-03-01T02:10:43.858Z,100519
2015-03-01T02:10:57.396Z,100531
2015-03-01T02:11:11.143Z,100513
2015-03-01T02:11:24.881Z,100510
2015-03-01T02:11:38.404Z,100513
2015-03-01T02:11:52.093Z,100513
2015-03-01T02:12:05.899Z,100519
2015-03-01T02:12:19.412Z,100519
2015-03-01T02:12:33.032Z,100519
2015-03-01T02:12:46.809Z,100510
2015-03-01T02:13:00.371Z,100507
2015-03-01T02:13:13.950Z,100507
2015-03-01T02:13:27.738Z,100519
2015-03-01T02:13:41.345Z,100507
2015-03-01T02:13:54.787Z,100510
2015-03-01T02:14:08.593Z,100501
2015-03-01T02:14:22.269Z,100507
2015-03-01T02:14:35.861Z,100504
2015-03-01T02:14:49.606Z,100504
2015-03-01T02:15:03.348Z,100516
2015-03-01T02:15:16.928Z,100504
2015-03-01T02:15:30.559Z,100510
2015-03-01T02:15:44.315Z,100501
2015-03-01T02:15:57.868Z,100510
2015-03-01T02:16:11.860Z,100507
2015-03-01T02:16:25.498Z,100507
2015-03-01T02:16:39.248Z,100513
2015-03-01T02:16:52.976Z,100501
2015-03-01T02:17:06.510Z,100501
2015-03-01T02:17:20.201Z,100495
2015-03-01T02:17:33.972Z,100498
2015-03-01T02:17:47.491Z,100498
2015-03-01T02:18:01.093Z,100498
2015-03-01T02:18:14.869Z,100501
2015-03-01T02:18:28.457Z,100501
2015-03-01T02:18:42.061Z,100498
2015-03-01T02:18:55.872Z,100501
2015-03-01T02:19:09.420Z,100495
2015-03-01T02:19:23.140Z,100498
2015-03-01T02:19:36.657Z,100504
2015-03-01T02:19:50.289Z,100492
2015-03-01T02:20:04.063Z,100498
2015-03-01T02:20:17.705Z,100485
2015-03-01T02:20:31.263Z,100498
2015-03-01T02:20:45.025Z,100489
2015-03-01T02:20:58.646Z,100495
2015-03-01T02:21:12.186Z,100492
2015-03-01T02:21:25.876Z,100495
2015-03-01T02:21:39.567Z,100482
2015-03-01T02:21:53.083Z,100501
2015-03-01T02:22:06.835Z,100492
2015-03-01T02:22:21.147Z,100489
2015-03-01T02:22:34.929Z,100492
2015-03-01T02:22:48.575Z,100474
2015-03-01T02:23:02.102Z,100485
2015-03-01T02:23:15.908Z,100479
2015-03-01T02:23:29.561Z,100479
2015-03-01T02:23:43.125Z,100476
2015-03-01T02:23:56.846Z,100479
2015-03-01T02:24:10.514Z,100482
2015-03-01T02:24:24.014Z,100476
2015-03-01T02:24:37.708Z,100471
2015-03-01T02:24:51.518Z,100482
2015-03-01T02:25:05.114Z,100489
2015-03-01T02:25:18.796Z,100488
2015-03-01T02:25:32.322Z,100492
2015-03-01T02:25:46.055Z,100485
2015-03-01T02:25:59.797Z,100476
2015-03-01T02:26:13.356Z,100465
2015-03-01T02:26:27.087Z,100474
2015-03-01T02:26:40.860Z,100485
2015-03-01T02:26:54.422Z,100465
2015-03-01T02:27:08.075Z,100465
2015-03-01T02:27:21.853Z,100482
2015-03-01T02:27:35.380Z,100471
2015-03-01T02:27:48.952Z,100476
2015-03-01T02:28:02.638Z,100482
2015-03-01T02:28:16.307Z,100479
2015-03-01T02:28:30.081Z,100476
2015-03-01T02:28:43.586Z,100474
2015-03-01T02:28:57.223Z,100476
2015-03-01T02:29:11.026Z,100485
2015-03-01T02:29:24.619Z,100465
2015-03-01T02:29:38.225Z,100482
2015-03-01T02:29:52.098Z,100476
2015-03-01T02:30:05.827Z,100474
2015-03-01T02:30:19.430Z,100471
2015-03-01T02:30:33.268Z,100462
2015-03-01T02:30:46.974Z,100482
2015-03-01T02:31:00.648Z,100479
2015-03-01T02:31:14.223Z,100474
2015-03-01T02:31:27.785Z,100471
2015-03-01T02:31:41.565Z,100474
2015-03-01T02:31:55.174Z,100471
2015-03-01T02:32:08.696Z,100474
2015-03-01T02:32:22.431Z,100459
2015-03-01T02:32:36.104Z,100462
2015-03-01T02:32:49.547Z,100462
2015-03-01T02:33:03.291Z,100462
2015-03-01T02:33:17.055Z,100462
2015-03-01T02:33:30.583Z,100462
2015-03-01T02:33:44.277Z,100474
2015-03-01T02:33:57.890Z,100465
2015-03-01T02:34:11.704Z,100468
2015-03-01T02:34:25.396Z,100459
2015-03-01T02:34:38.968Z,100459
2015-03-01T02:34:52.742Z,100471
2015-03-01T02:35:06.483Z,100462
2015-03-01T02:35:20.011Z,100462
2015-03-01T02:35:33.703Z,100468
2015-03-01T02:35:47.524Z,100468
2015-03-01T02:36:00.984Z,100465
2015-03-01T02:36:14.621Z,100447
2015-03-01T02:36:28.411Z,100459
2015-03-01T02:36:41.991Z,100476
2015-03-01T02:36:55.561Z,100462
2015-03-01T02:37:09.392Z,100459
2015-03-01T02:37:23.030Z,100468
2015-03-01T02:37:36.585Z,100462
2015-03-01T02:37:50.369Z,100456
2015-03-01T02:38:04.070Z,100453
2015-03-01T02:38:17.624Z,100456
2015-03-01T02:38:31.398Z,100453
2015-03-01T02:38:45.167Z,100459
2015-03-01T02:38:58.758Z,100453
2015-03-01T02:39:12.483Z,100447
2015-03-01T02:39:26.264Z,100468
2015-03-01T02:39:39.853Z,100450
2015-03-01T02:39:53.508Z,100453
2015-03-01T02:40:07.045Z,100434
2015-03-01T02:40:20.736Z,100444
2015-03-01T02:40:34.457Z,100447
2015-03-01T02:40:47.994Z,100444
2015-03-01T02:41:01.693Z,100447
2015-03-01T02:41:15.484Z,100440
2015-03-01T02:41:28.955Z,100434
2015-03-01T02:41:42.592Z,100444
2015-03-01T02:41:56.385Z,100453
2015-03-01T02:42:09.987Z,100441
2015-03-01T02:42:23.617Z,100437
2015-03-01T02:42:37.294Z,100450
2015-03-01T02:42:51.015Z,100444
2015-03-01T02:43:04.789Z,100440
2015-03-01T02:43:18.328Z,100440
2015-03-01T02:43:31.946Z,100450
2015-03-01T02:43:45.733Z,100437
2015-03-01T02:43:59.301Z,100444
2015-03-01T02:44:12.929Z,100450
2015-03-01T02:44:26.617Z,100444
2015-03-01T02:44:40.229Z,100437
2015-03-01T02:44:53.775Z,100444
2015-03-01T02:45:07.563Z,100447
2015-03-01T02:45:21.277Z,100440
2015-03-01T02:45:34.986Z,100444
2015-03-01T02:45:48.578Z,100447
2015-03-01T02:46:02.690Z,100428
2015-03-01T02:46:16.461Z,100434
2015-03-01T02:46:30.087Z,100440
2015-03-01T02:46:43.618Z,100434
2015-03-01T02:46:57.421Z,100437
2015-03-01T02:47:11.763Z,100437
2015-03-01T02:47:25.292Z,100431
2015-03-01T02:47:39.010Z,100437
2015-03-01T02:47:52.714Z,100437
2015-03-01T02:48:06.246Z,100450
2015-03-01T02:48:19.927Z,100428
2015-03-01T02:48:33.416Z,100431
2015-03-01T02:48:47.198Z,100440
2015-03-01T02:49:00.870Z,100434
2015-03-01T02:49:14.423Z,100434
2015-03-01T02:49:28.179Z,100434
2015-03-01T02:49:41.938Z,100437